Time;durP1;ratioP1;P1;durP2;ratioP2;P2;SDS_P1;SDS_P2;PMS_P1;PMS_P2;Temp;Humidity;BMP_temperature;BMP_pressure;BME280_temperature;BME280_humidity;BME280_pressure;Samples;Min_cycle;Max_cycle;Signal;HPM_P1;HPM_P2
2022/12/29 00:02:24;;;;;;;46.53;30.58;;;9.60;99.90;;;;;;6308399;22;20056;-73
2022/12/29 00:04:50;;;;;;;43.72;29.17;;;9.50;99.90;;;;;;6308532;22;20007;-73
2022/12/29 00:07:17;;;;;;;49.40;30.67;;;9.60;99.90;;;;;;6281078;22;20338;-73
2022/12/29 00:09:43;;;;;;;42.28;28.23;;;9.60;99.90;;;;;;6308739;22;20006;-73
2022/12/29 00:12:09;;;;;;;44.22;29.70;;;9.60;99.90;;;;;;6308738;22;20004;-72
2022/12/29 00:17:19;;;;;;;43.50;29.60;;;9.50;99.90;;;;;;6308167;22;20026;-73
2022/12/29 00:45:39;;;;;;;;;;;;;;;;;;;;;
2022/12/29 00:58:58;;;;;;;46.38;30.52;;;9.50;99.90;;;;;;6009279;23;20108;-73
2022/12/29 01:01:27;;;;;;;50.23;31.57;;;9.50;99.90;;;;;;6062112;23;20011;-73
2022/12/29 01:03:53;;;;;;;47.93;31.47;;;9.50;99.90;;;;;;6069743;23;20034;-73
2022/12/29 01:06:19;;;;;;;40.67;29.77;;;9.50;99.90;;;;;;6293831;22;20398;-73
2022/12/29 01:08:45;;;;;;;44.10;30.10;;;9.50;99.90;;;;;;6308084;22;20322;-73
2022/12/29 01:11:12;;;;;;;41.17;28.53;;;9.50;99.90;;;;;;6307316;22;20014;-73
2022/12/29 01:13:40;;;;;;;45.90;28.80;;;9.50;99.90;;;;;;6307587;22;20319;-73
2022/12/29 01:16:06;;;;;;;40.80;27.57;;;9.50;99.90;;;;;;6307726;22;20015;-73
2022/12/29 01:18:32;;;;;;;44.20;28.30;;;9.50;99.90;;;;;;6307781;22;20318;-73
2022/12/29 01:21:04;;;;;;;44.20;29.13;;;9.50;99.90;;;;;;6307924;22;20003;-73
2022/12/29 01:23:30;;;;;;;45.38;29.20;;;9.50;99.90;;;;;;6307873;22;20052;-74
2022/12/29 01:25:57;;;;;;;39.47;26.60;;;9.50;99.90;;;;;;6308200;22;20337;-73
2022/12/29 01:28:22;;;;;;;37.97;26.30;;;9.40;99.90;;;;;;6307674;22;20495;-73
2022/12/29 01:30:48;;;;;;;43.13;27.13;;;9.40;99.90;;;;;;6307845;22;20003;-73
2022/12/29 01:33:14;;;;;;;40.43;27.40;;;9.40;99.90;;;;;;6307623;22;19995;-72
2022/12/29 01:35:40;;;;;;;43.10;27.20;;;9.40;99.90;;;;;;6307888;22;20007;-72
2022/12/29 01:38:07;;;;;;;42.83;29.37;;;9.40;99.90;;;;;;6307873;22;20064;-72
2022/12/29 01:40:33;;;;;;;44.07;28.17;;;9.40;99.90;;;;;;6307904;22;20410;-72
2022/12/29 01:42:59;;;;;;;44.07;29.13;;;9.30;99.90;;;;;;6307667;22;20074;-71
2022/12/29 01:45:24;;;;;;;42.87;28.27;;;9.30;99.90;;;;;;6307810;22;20000;-72
2022/12/29 01:47:58;;;;;;;47.57;29.47;;;9.30;99.90;;;;;;6280307;22;20010;-72
2022/12/29 01:50:42;;;;;;;48.47;28.53;;;9.40;99.90;;;;;;6307574;22;20445;-72
2022/12/29 01:53:20;;;;;;;45.33;28.93;;;9.30;99.90;;;;;;6307573;22;20010;-72
2022/12/29 01:55:53;;;;;;;49.20;29.97;;;9.30;99.90;;;;;;6307606;22;20041;-72
2022/12/29 01:58:23;;;;;;;45.07;29.07;;;9.30;99.90;;;;;;6305539;22;20007;-72
2022/12/29 02:00:48;;;;;;;47.00;30.00;;;9.30;99.90;;;;;;6304104;22;20003;-72
2022/12/29 02:03:16;;;;;;;48.20;30.57;;;9.30;99.90;;;;;;6304355;22;19995;-72
2022/12/29 02:06:08;;;;;;;48.17;29.83;;;9.30;99.90;;;;;;6279700;22;20007;-73
2022/12/29 02:08:36;;;;;;;43.53;28.98;;;9.30;99.90;;;;;;6307703;22;20002;-73
2022/12/29 02:11:03;;;;;;;44.20;28.47;;;9.30;99.90;;;;;;6307880;22;20003;-72
2022/12/29 02:13:29;;;;;;;43.27;28.67;;;9.30;99.90;;;;;;6307980;22;20078;-73
2022/12/29 02:16:23;;;;;;;46.00;29.50;;;9.20;99.90;;;;;;6280719;22;20015;-73
2022/12/29 02:46:46;;;;;;;43.08;28.98;;;9.20;99.90;;;;;;6211743;23;20009;-73
2022/12/29 02:49:32;;;;;;;46.23;27.97;;;9.20;99.90;;;;;;6123324;23;20017;-73
2022/12/29 02:52:01;;;;;;;43.70;28.33;;;9.10;99.90;;;;;;6181596;23;20009;-72
2022/12/29 02:54:42;;;;;;;46.27;29.20;;;9.20;99.90;;;;;;6259523;22;20069;-73
2022/12/29 02:57:21;;;;;;;44.80;28.97;;;;;;;;;;6279533;22;20018;-72
2022/12/29 02:59:48;;;;;;;45.77;29.67;;;;;;;;;;6307428;22;20340;-73
2022/12/29 03:02:23;;;;;;;49.17;31.23;;;;;;;;;;6307030;22;19995;-72
2022/12/29 03:04:55;;;;;;;49.80;29.43;;;;;;;;;;6306918;22;20330;-73
2022/12/29 03:07:30;;;;;;;45.17;28.98;;;;;;;;;;6306875;22;20004;-73
2022/12/29 03:10:08;;;;;;;48.30;29.93;;;;;;;;;;6306743;22;20703;-73
2022/12/29 03:18:23;;;;;;;44.37;29.60;;;;;;;;;;6306430;22;20015;-73
2022/12/29 03:21:04;;;;;;;47.53;30.03;;;;;;;;;;6306438;22;20004;-73
2022/12/29 03:23:30;;;;;;;44.77;28.97;;;;;;;;;;6279299;22;20094;-73
2022/12/29 03:25:59;;;;;;;49.97;30.10;;;;;;;;;;6306602;22;19995;-73
2022/12/29 03:28:28;;;;;;;42.13;28.13;;;;;;;;;;6306417;22;19999;-73
2022/12/29 03:30:54;;;;;;;49.10;30.17;;;;;;;;;;6306488;22;20000;-73
2022/12/29 03:33:26;;;;;;;44.93;28.33;;;;;;;;;;6278731;22;20011;-72
2022/12/29 03:35:54;;;;;;;41.40;27.93;;;;;;;;;;6306301;22;20114;-73
2022/12/29 03:38:24;;;;;;;47.80;28.93;;;;;;;;;;6306970;22;20000;-73
2022/12/29 03:40:52;;;;;;;47.77;28.07;;;;;;;;;;6306663;22;20003;-73
2022/12/29 03:43:18;;;;;;;41.37;28.43;;;;;;;;;;6306792;22;20330;-73
2022/12/29 03:45:45;;;;;;;45.10;28.23;;;;;;;;;;6279464;22;20027;-73
2022/12/29 03:48:11;;;;;;;43.87;27.93;;;;;;;;;;6306758;22;20083;-73
2022/12/29 03:50:37;;;;;;;46.83;29.33;;;;;;;;;;6306631;22;20026;-73
2022/12/29 03:53:03;;;;;;;45.63;28.40;;;;;;;;;;6278928;22;20022;-73
2022/12/29 03:55:29;;;;;;;44.07;28.30;;;;;;;;;;6306842;22;20429;-73
2022/12/29 03:57:56;;;;;;;46.93;29.03;;;;;;;;;;6307588;22;20411;-73
2022/12/29 04:00:22;;;;;;;50.20;31.23;;;;;;;;;;6307282;22;20213;-73
2022/12/29 04:02:48;;;;;;;45.63;29.53;;;;;;;;;;6279903;22;20031;-73
2022/12/29 04:05:15;;;;;;;45.47;28.40;;;;;;;;;;6306964;22;19999;-73
2022/12/29 04:24:12;;;;;;;;;;;;;;;;;;;;;
2022/12/29 04:29:43;;;;;;;52.93;29.70;;;;;;;;;;5980146;23;20020;-73
2022/12/29 04:32:46;;;;;;;45.77;29.70;;;;;;;;;;5980151;23;20014;-73
2022/12/29 04:35:16;;;;;;;46.75;29.45;;;9.20;99.90;;;;;;5977446;23;20377;-73
2022/12/29 04:37:42;;;;;;;45.77;28.20;;;9.30;99.90;;;;;;5986147;23;20458;-73
2022/12/29 04:40:09;;;;;;;46.53;29.27;;;9.30;99.90;;;;;;6025760;23;20541;-73
2022/12/29 04:42:34;;;;;;;45.40;28.57;;;9.30;99.90;;;;;;6285811;22;20381;-73
2022/12/29 04:45:00;;;;;;;42.80;27.53;;;9.30;99.90;;;;;;6279821;22;19999;-73
2022/12/29 04:47:26;;;;;;;45.60;29.63;;;9.30;99.90;;;;;;6308337;22;20026;-73
2022/12/29 04:49:52;;;;;;;42.40;27.37;;;9.30;99.90;;;;;;6308308;22;20003;-73
2022/12/29 04:52:18;;;;;;;49.27;29.03;;;9.40;99.90;;;;;;6280699;22;20009;-72
2022/12/29 04:54:44;;;;;;;47.17;30.03;;;9.40;99.90;;;;;;6280273;22;20345;-72
2022/12/29 04:57:10;;;;;;;45.80;28.97;;;9.40;99.90;;;;;;6308274;22;20082;-73
2022/12/29 04:59:35;;;;;;;45.73;30.57;;;9.40;99.90;;;;;;6281017;22;20025;-73
2022/12/29 05:02:01;;;;;;;47.43;30.70;;;9.40;99.90;;;;;;6308477;22;20000;-73
2022/12/29 05:04:27;;;;;;;49.93;29.73;;;9.40;99.90;;;;;;6308302;22;20126;-73
2022/12/29 05:06:53;;;;;;;46.13;29.63;;;9.40;99.90;;;;;;6308280;22;20003;-73
2022/12/29 05:09:18;;;;;;;48.73;29.53;;;9.40;99.90;;;;;;6308111;22;20030;-73
2022/12/29 05:11:44;;;;;;;50.07;29.67;;;9.40;99.90;;;;;;6308014;22;20053;-72
2022/12/29 05:14:10;;;;;;;48.00;29.47;;;;;;;;;;6308348;22;20006;-73
2022/12/29 05:16:36;;;;;;;49.63;29.90;;;;;;;;;;6308647;22;20317;-73
2022/12/29 05:19:02;;;;;;;44.83;27.67;;;;;;;;;;6307869;22;20003;-72
2022/12/29 05:21:29;;;;;;;43.00;28.20;;;;;;;;;;6307968;22;20003;-72
2022/12/29 05:23:55;;;;;;;49.30;29.03;;;;;;;;;;6307951;22;20422;-72
2022/12/29 05:26:21;;;;;;;44.20;27.53;;;;;;;;;;6307619;22;20015;-72
2022/12/29 05:28:47;;;;;;;43.63;28.00;;;;;;;;;;6308006;22;20368;-72
2022/12/29 05:31:13;;;;;;;43.80;27.47;;;;;;;;;;6307717;22;20003;-72
2022/12/29 05:33:39;;;;;;;44.40;27.77;;;;;;;;;;6308103;22;19999;-72
2022/12/29 05:36:06;;;;;;;42.73;27.23;;;;;;;;;;6307691;22;20012;-72
2022/12/29 05:38:32;;;;;;;45.80;27.10;;;;;;;;;;6307796;22;19999;-72
2022/12/29 05:40:58;;;;;;;42.20;27.30;;;;;;;;;;6307698;22;20000;-72
2022/12/29 05:43:24;;;;;;;46.83;28.27;;;;;;;;;;6308324;22;19995;-73
2022/12/29 05:45:51;;;;;;;38.30;26.10;;;;;;;;;;6308513;22;20299;-73
2022/12/29 05:48:17;;;;;;;41.07;25.73;;;;;;;;;;6308668;22;19999;-73
2022/12/29 05:50:43;;;;;;;39.27;25.87;;;;;;;;;;6308414;22;20079;-72
2022/12/29 05:53:09;;;;;;;40.47;26.50;;;;;;;;;;6307925;22;20018;-73
2022/12/29 05:55:56;;;;;;;40.60;26.43;;;;;;;;;;6280208;22;20039;-73
2022/12/29 06:01:28;;;;;;;40.60;25.50;;;;;;;;;;6308462;22;20094;-72
2022/12/29 06:16:55;;;;;;;42.50;26.13;;;;;;;;;;6183516;23;20056;-73
2022/12/29 06:19:56;;;;;;;39.83;25.17;;;;;;;;;;6183096;23;20001;-73
2022/12/29 06:22:42;;;;;;;41.73;25.40;;;;;;;;;;6093516;23;20081;-73
2022/12/29 06:25:09;;;;;;;46.97;26.53;;;;;;;;;;6079495;23;20002;-73
2022/12/29 06:27:35;;;;;;;45.70;26.87;;;;;;;;;;6195633;23;20323;-73
2022/12/29 06:30:01;;;;;;;44.40;25.47;;;;;;;;;;6287680;22;20322;-73
2022/12/29 06:32:28;;;;;;;44.77;27.13;;;;;;;;;;6307166;22;20317;-73
2022/12/29 06:34:54;;;;;;;43.53;26.77;;;;;;;;;;6307145;22;19999;-73
2022/12/29 06:37:20;;;;;;;42.80;26.93;;;;;;;;;;6306864;22;20398;-73
2022/12/29 06:39:46;;;;;;;44.83;26.87;;;;;;;;;;6307444;22;20361;-73
2022/12/29 06:42:12;;;;;;;43.87;26.97;;;;;;;;;;6307211;22;19995;-73
2022/12/29 06:44:38;;;;;;;40.67;26.87;;;;;;;;;;6307429;22;20303;-73
2022/12/29 06:47:04;;;;;;;42.07;27.00;;;;;;;;;;6307430;22;20084;-73
2022/12/29 06:49:30;;;;;;;42.87;28.87;;;;;;;;;;6307343;22;20388;-73
2022/12/29 06:51:58;;;;;;;49.23;28.37;;;;;;;;;;6307363;22;20013;-73
2022/12/29 06:54:24;;;;;;;46.40;27.90;;;;;;;;;;6306026;22;20486;-73
2022/12/29 06:56:50;;;;;;;46.37;26.90;;;;;;;;;;6306887;22;20437;-73
2022/12/29 06:59:16;;;;;;;45.40;28.03;;;;;;;;;;6306177;22;20007;-73
2022/12/29 07:01:42;;;;;;;43.07;28.13;;;;;;;;;;6306133;22;20437;-73
2022/12/29 07:04:08;;;;;;;42.50;26.93;;;;;;;;;;6306641;22;20080;-73
2022/12/29 07:06:34;;;;;;;46.77;27.10;;;;;;;;;;6306819;22;20473;-73
2022/12/29 07:09:00;;;;;;;43.23;26.93;;;;;;;;;;6306282;22;20006;-73
2022/12/29 07:11:27;;;;;;;43.83;28.10;;;;;;;;;;6307051;22;20029;-73
2022/12/29 07:13:53;;;;;;;41.50;26.50;;;;;;;;;;6306918;22;20422;-73
2022/12/29 07:16:19;;;;;;;43.47;26.47;;;;;;;;;;6279699;22;20084;-73
2022/12/29 07:18:46;;;;;;;46.83;27.40;;;;;;;;;;6306936;22;20034;-73
2022/12/29 07:21:12;;;;;;;44.17;26.97;;;;;;;;;;6307261;22;20004;-73
2022/12/29 07:23:38;;;;;;;42.73;27.80;;;;;;;;;;6306969;22;20449;-73
2022/12/29 07:26:05;;;;;;;41.20;27.13;;;;;;;;;;6307647;22;20082;-72
2022/12/29 07:28:32;;;;;;;42.47;26.53;;;;;;;;;;6307203;22;20003;-73
2022/12/29 07:30:58;;;;;;;42.03;27.57;;;;;;;;;;6307281;22;20418;-73
2022/12/29 07:33:24;;;;;;;39.13;25.73;;;;;;;;;;6307056;22;19999;-73
2022/12/29 07:35:50;;;;;;;46.17;27.73;;;;;;;;;;6307945;22;20392;-72
2022/12/29 07:38:17;;;;;;;47.87;27.63;;;;;;;;;;6307695;22;20022;-73
2022/12/29 07:40:44;;;;;;;42.33;26.43;;;;;;;;;;6307433;22;20049;-73
2022/12/29 07:43:58;;;;;;;43.33;25.50;;;;;;;;;;6280061;22;20003;-74
2022/12/29 08:08:18;;;;;;;;;;;;;;;;;;;;;
2022/12/29 08:11:02;;;;;;;34.50;21.73;;;;;;;;;;6210079;23;20433;-75
2022/12/29 08:13:29;;;;;;;31.17;20.47;;;;;;;;;;6305499;22;19996;-75
2022/12/29 08:15:55;;;;;;;34.67;21.33;;;;;;;;;;6305469;22;20390;-74
2022/12/29 08:18:21;;;;;;;35.20;21.00;;;;;;;;;;6306770;22;20338;-72
2022/12/29 08:20:48;;;;;;;33.60;21.67;;;;;;;;;;6309030;22;20003;-79
2022/12/29 08:23:14;;;;;;;34.87;20.97;;;;;;;;;;6308483;22;20006;-76
2022/12/29 08:25:40;;;;;;;37.50;22.80;;;;;;;;;;6305987;22;20325;-74
2022/12/29 08:28:06;;;;;;;40.37;24.30;;;;;;;;;;6308024;22;20007;-75
2022/12/29 08:30:33;;;;;;;39.60;23.40;;;;;;;;;;6307537;22;20018;-75
2022/12/29 08:32:59;;;;;;;37.97;23.50;;;;;;;;;;6279519;22;20488;-75
2022/12/29 08:35:25;;;;;;;36.67;22.20;;;;;;;;;;6306601;22;20070;-74
2022/12/29 08:37:51;;;;;;;38.47;23.67;;;;;;;;;;6306887;22;20594;-73
2022/12/29 08:40:17;;;;;;;40.77;24.67;;;;;;;;;;6307599;22;20004;-71
2022/12/29 08:42:44;;;;;;;38.33;24.83;;;;;;;;;;6280404;22;20321;-73
2022/12/29 08:45:10;;;;;;;36.07;23.50;;;;;;;;;;6306722;22;20434;-74
2022/12/29 08:47:36;;;;;;;35.27;23.07;;;;;;;;;;6307805;22;20425;-72
2022/12/29 08:50:02;;;;;;;36.50;23.23;;;;;;;;;;6307967;22;20337;-71
2022/12/29 08:52:28;;;;;;;37.40;23.83;;;;;;;;;;6307747;22;20433;-72
2022/12/29 08:54:54;;;;;;;37.03;23.77;;;;;;;;;;6307572;22;20016;-72
2022/12/29 08:57:21;;;;;;;37.23;24.67;;;;;;;;;;6308229;22;20018;-74
2022/12/29 08:59:47;;;;;;;41.23;23.97;;;;;;;;;;6280621;22;20003;-75
2022/12/29 09:02:13;;;;;;;39.53;25.03;;;;;;;;;;6308113;22;20428;-75
2022/12/29 09:04:39;;;;;;;38.23;23.93;;;;;;;;;;6307258;22;20010;-75
2022/12/29 09:07:05;;;;;;;37.40;23.70;;;;;;;;;;6307486;22;20035;-74
2022/12/29 09:09:32;;;;;;;38.47;23.90;;;;;;;;;;6307730;22;20444;-74
2022/12/29 09:11:58;;;;;;;40.87;24.43;;;;;;;;;;6308028;22;20004;-75
2022/12/29 09:14:24;;;;;;;39.57;25.10;;;;;;;;;;6307438;22;20025;-75
2022/12/29 09:19:39;;;;;;;39.40;26.27;;;;;;;;;;6308327;22;20345;-71
2022/12/29 09:22:11;;;;;;;43.80;25.83;;;;;;;;;;6308026;22;20007;-70
2022/12/29 09:24:37;;;;;;;41.80;23.90;;;;;;;;;;6308318;22;20408;-71
2022/12/29 09:27:33;;;;;;;38.40;25.03;;;;;;;;;;6308460;22;20019;-71
2022/12/29 09:30:09;;;;;;;38.30;24.43;;;;;;;;;;6298146;22;20007;-71
2022/12/29 09:32:55;;;;;;;31.67;22.37;;;;;;;;;;6308094;22;20011;-72
2022/12/29 09:35:48;;;;;;;35.70;22.97;;;;;;;;;;6307698;22;20334;-71
2022/12/29 09:38:42;;;;;;;38.35;24.30;;;;;;;;;;6277692;22;20011;-71
2022/12/29 09:45:06;;;;;;;41.20;23.17;;;;;;;;;;6211596;23;20436;-72
2022/12/29 09:51:02;;;;;;;43.53;25.10;;;;;;;;;;6064475;23;20011;-72
2022/12/29 10:00:07;;;;;;;41.37;26.00;;;;;;;;;;5965783;24;20008;-76
2022/12/29 10:02:41;;;;;;;41.23;25.87;;;;;;;;;;6023185;23;20334;-71
2022/12/29 10:05:20;;;;;;;39.13;24.23;;;;;;;;;;6216234;22;20355;-73
2022/12/29 10:08:03;;;;;;;39.13;25.50;;;;;;;;;;6303809;22;20306;-75
2022/12/29 10:10:40;;;;;;;39.08;25.05;;;;;;;;;;6306295;22;20321;-75
2022/12/29 10:13:09;;;;;;;36.73;24.17;;;;;;;;;;6307133;22;20025;-73
2022/12/29 10:15:51;;;;;;;38.87;24.47;;;;;;;;;;6306383;22;20007;-75
2022/12/29 10:18:30;;;;;;;38.53;25.50;;;;;;;;;;6278932;22;20056;-75
2022/12/29 10:21:02;;;;;;;44.27;28.13;;;;;;;;;;6307362;22;20003;-75
2022/12/29 10:23:31;;;;;;;42.75;26.55;;;;;;;;;;6307703;22;20000;-74
2022/12/29 10:25:58;;;;;;;42.50;26.10;;;;;;;;;;6306464;22;19996;-72
2022/12/29 10:28:44;;;;;;;43.97;27.17;;;;;;;;;;6306889;22;19999;-74
2022/12/29 10:31:22;;;;;;;39.60;26.83;;;;;;;;;;6279679;22;20506;-75
2022/12/29 10:33:51;;;;;;;44.40;28.00;;;;;;;;;;6307325;22;20372;-75
2022/12/29 10:36:18;;;;;;;47.97;27.37;;;;;;;;;;6307537;22;20448;-75
2022/12/29 10:39:08;;;;;;;42.65;27.30;;;;;;;;;;6307163;22;20326;-73
2022/12/29 10:41:40;;;;;;;44.73;27.97;;;;;;;;;;6263348;22;20003;-76
2022/12/29 10:44:09;;;;;;;44.17;29.38;;;;;;;;;;6307176;22;20473;-73
2022/12/29 10:46:37;;;;;;;45.30;30.17;;;;;;;;;;6307406;22;20025;-75
2022/12/29 10:49:03;;;;;;;46.30;29.58;;;;;;;;;;6279545;22;20463;-74
2022/12/29 10:51:31;;;;;;;48.65;29.58;;;;;;;;;;6307052;22;20003;-75
2022/12/29 10:54:00;;;;;;;41.95;28.70;;;;;;;;;;6307098;22;20008;-72
2022/12/29 10:56:44;;;;;;;43.80;29.35;;;;;;;;;;6307083;22;20325;-75
2022/12/29 10:59:30;;;;;;;48.53;30.47;;;;;;;;;;6280065;22;20334;-75
2022/12/29 11:02:17;;;;;;;51.13;32.17;;;;;;;;;;6306885;22;20418;-74
2022/12/29 11:04:55;;;;;;;46.33;29.50;;;;;;;;;;6306594;22;20474;-74
2022/12/29 11:07:22;;;;;;;58.03;30.98;;;;;;;;;;6308052;22;20007;-75
2022/12/29 11:09:48;;;;;;;51.45;31.52;;;;;;;;;;6307797;22;20080;-74
2022/12/29 11:12:36;;;;;;;48.33;29.95;;;;;;;;;;6280222;22;20003;-74
2022/12/29 11:15:08;;;;;;;45.40;28.63;;;;;;;;;;6308102;22;20000;-74
2022/12/29 11:42:59;;;;;;;43.42;27.00;;;;;;;;;;6073512;23;20021;-74
2022/12/29 11:45:27;;;;;;;41.73;26.23;;;;;;;;;;6034711;23;20113;-76
2022/12/29 11:48:14;;;;;;;41.58;26.70;;;;;;;;;;6167287;23;20016;-74
2022/12/29 11:50:42;;;;;;;40.55;26.60;;;;;;;;;;6272158;22;20390;-75
2022/12/29 11:53:17;;;;;;;38.13;26.00;;;;;;;;;;6306349;22;20000;-75
2022/12/29 11:55:54;;;;;;;46.17;28.10;;;;;;;;;;6308199;22;20015;-75
2022/12/29 11:58:20;;;;;;;52.87;31.53;;;;;;;;;;6281940;22;20393;-72
2022/12/29 12:00:47;;;;;;;53.17;33.47;;;;;;;;;;6309143;22;20009;-75
2022/12/29 12:03:20;;;;;;;56.77;33.63;;;;;;;;;;6281291;22;20363;-72
2022/12/29 12:05:53;;;;;;;48.67;31.00;;;;;;;;;;6308708;22;20381;-72
2022/12/29 12:08:38;;;;;;;46.20;31.13;;;;;;;;;;6308905;22;19996;-73
2022/12/29 12:11:07;;;;;;;46.53;29.85;;;;;;;;;;6308553;22;20021;-72
2022/12/29 12:13:53;;;;;;;46.63;30.23;;;;;;;;;;6308184;22;20001;-73
2022/12/29 12:16:22;;;;;;;46.53;28.93;;;;;;;;;;6292504;22;20045;-73
2022/12/29 12:19:08;;;;;;;52.22;30.83;;;;;;;;;;6307646;22;20440;-73
2022/12/29 12:21:41;;;;;;;49.33;30.70;;;;;;;;;;6291544;22;20429;-73
2022/12/29 12:24:10;;;;;;;51.55;31.70;;;;;;;;;;6307835;22;20075;-72
2022/12/29 12:26:55;;;;;;;48.03;31.02;;;;;;;;;;6308318;22;20490;-73
2022/12/29 12:29:41;;;;;;;49.28;30.50;;;;;;;;;;6307868;22;20364;-72
2022/12/29 12:32:10;;;;;;;55.40;32.15;;;;;;;;;;6260126;22;20494;-73
2022/12/29 12:34:38;;;;;;;51.85;31.92;;;;;;;;;;6308001;22;20481;-73
2022/12/29 12:37:22;;;;;;;55.45;33.10;;;;;;;;;;6308278;22;20007;-73
2022/12/29 12:39:54;;;;;;;52.92;33.03;;;;;;;;;;6308182;22;20074;-72
2022/12/29 12:42:33;;;;;;;55.88;33.80;;;9.40;99.90;;;;;;6307649;22;20010;-73
2022/12/29 12:44:59;;;;;;;50.33;31.95;;;;;;;;;;6307487;22;20004;-72
2022/12/29 12:47:40;;;;;;;56.40;31.92;;;;;;;;;;6280381;22;20052;-72
2022/12/29 12:50:15;;;;;;;52.58;33.35;;;;;;;;;;6309301;22;20000;-73
2022/12/29 12:52:57;;;;;;;50.97;32.67;;;;;;;;;;6308767;22;20070;-73
2022/12/29 12:55:23;;;;;;;52.85;31.77;;;;;;;;;;6306550;22;20015;-73
2022/12/29 12:57:59;;;;;;;43.83;29.55;;;;;;;;;;6305778;22;20457;-73
2022/12/29 13:00:34;;;;;;;49.78;30.77;;;;;;;;;;6307449;22;20053;-73
2022/12/29 13:06:39;;;;;;;53.05;32.20;;;10.50;99.90;;;;;;6212239;23;20040;-72
2022/12/29 13:15:47;;;;;;;55.53;31.77;;;;;;;;;;6120982;23;20010;-74
2022/12/29 13:27:31;;;;;;;48.65;28.70;;;;;;;;;;6203104;23;19907;-74
2022/12/29 13:29:57;;;;;;;;;;;;;;;;;;6254851;22;20362;-74
2022/12/29 13:32:38;;;;;;;47.60;29.08;;;;;;;;;;6308272;22;20274;-74
2022/12/29 13:35:24;;;;;;;47.60;29.95;;;;;;;;;;6308664;22;20007;-74
2022/12/29 13:37:56;;;;;;;45.00;29.25;;;;;;;;;;6281190;22;20427;-73
2022/12/29 13:40:25;;;;;;;42.70;27.88;;;;;;;;;;6308102;22;20003;-73
2022/12/29 13:42:52;;;;;;;43.28;28.17;;;;;;;;;;6307788;22;20207;-73
2022/12/29 13:45:21;;;;;;;45.42;28.35;;;;;;;;;;6307714;22;20005;-73
2022/12/29 13:47:56;;;;;;;41.70;27.60;;;;;;;;;;6308246;22;20413;-73
2022/12/29 13:50:23;;;;;;;40.67;26.85;;;;;;;;;;6307890;22;20003;-74
2022/12/29 13:53:05;;;;;;;46.55;29.85;;;;;;;;;;6307272;22;19999;-73
2022/12/29 13:55:49;;;;;;;41.47;28.60;;;;;;;;;;6308209;22;20322;-74
2022/12/29 13:58:19;;;;;;;45.17;29.65;;;;;;;;;;6307968;22;20007;-73
2022/12/29 14:00:45;;;;;;;44.00;30.55;;;;;;;;;;6308078;22;20006;-74
2022/12/29 14:03:29;;;;;;;46.72;30.27;;;;;;;;;;6307592;22;20188;-73
2022/12/29 14:06:13;;;;;;;46.38;29.80;;;;;;;;;;6307563;22;20010;-73
2022/12/29 14:08:40;;;;;;;44.95;29.75;;;;;;;;;;6307909;22;20035;-74
2022/12/29 14:11:13;;;;;;;46.70;29.85;;;;;;;;;;6307245;22;20007;-74
2022/12/29 14:13:40;;;;;;;47.30;30.50;;;;;;;;;;6280447;22;20085;-73
2022/12/29 14:16:07;;;;;;;46.95;31.67;;;;;;;;;;6307777;22;20053;-76
2022/12/29 14:18:34;;;;;;;52.00;31.27;;;;;;;;;;6307325;22;20002;-74
2022/12/29 14:21:18;;;;;;;47.75;29.77;;;;;;;;;;6307904;22;20077;-75
2022/12/29 14:23:45;;;;;;;53.20;29.67;;;;;;;;;;6307773;22;20434;-76
2022/12/29 14:26:11;;;;;;;50.83;30.23;;;;;;;;;;6279894;22;20006;-75
2022/12/29 14:28:39;;;;;;;50.63;28.95;;;;;;;;;;6307419;22;20006;-74
2022/12/29 14:31:17;;;;;;;48.83;30.02;;;;;;;;;;6280298;22;20421;-72
2022/12/29 14:34:02;;;;;;;47.80;31.25;;;;;;;;;;6307695;22;20478;-74
2022/12/29 14:36:35;;;;;;;51.70;32.00;;;;;;;;;;6308338;22;20043;-74
2022/12/29 14:39:01;;;;;;;51.95;31.73;;;;;;;;;;6308069;22;20345;-73
2022/12/29 14:41:35;;;;;;;50.22;31.75;;;;;;;;;;6307987;22;19995;-73
2022/12/29 14:44:08;;;;;;;48.55;30.90;;;;;;;;;;6308213;22;19999;-73
2022/12/29 15:15:29;;;;;;;49.03;29.73;;;;;;;;;;6307208;22;20099;-73
2022/12/29 15:17:56;;;;;;;45.13;29.95;;;;;;;;;;6304843;22;20411;-72
2022/12/29 15:20:22;;;;;;;54.13;32.67;;;;;;;;;;6301983;22;20085;-73
2022/12/29 15:23:01;;;;;;;51.00;30.90;;;;;;;;;;6303821;22;20007;-73
2022/12/29 15:25:27;;;;;;;44.80;28.40;;;;;;;;;;6304546;22;20329;-73
2022/12/29 15:28:02;;;;;;;43.08;28.30;;;;;;;;;;6305751;22;20094;-73
2022/12/29 15:30:28;;;;;;;49.70;31.48;;;;;;;;;;6302610;22;20002;-74
2022/12/29 15:32:54;;;;;;;50.47;30.60;;;;;;;;;;6302954;22;20428;-73
2022/12/29 15:35:34;;;;;;;48.17;30.77;;;;;;;;;;6304220;22;19999;-73
2022/12/29 15:38:03;;;;;;;43.00;30.70;;;;;;;;;;6305620;22;20433;-73
2022/12/29 15:40:33;;;;;;;51.47;30.35;;;;;;;;;;6306477;22;20005;-73
2022/12/29 15:43:25;;;;;;;46.92;29.40;;;;;;;;;;6306509;22;20031;-73
2022/12/29 15:45:53;;;;;;;47.90;31.08;;;;;;;;;;6280636;22;20504;-74
2022/12/29 15:48:21;;;;;;;52.53;31.73;;;;;;;;;;6306399;22;20389;-74
2022/12/29 15:50:48;;;;;;;53.63;33.15;;;;;;;;;;6279393;22;20007;-73
2022/12/29 15:53:20;;;;;;;67.50;41.42;;;;;;;;;;6305970;22;20429;-73
2022/12/29 15:55:47;;;;;;;;;;;;;;;;;;6280553;22;20425;-74
2022/12/29 15:58:21;;;;;;;61.77;37.93;;;;;;;;;;6306722;22;19918;-74
2022/12/29 16:00:49;;;;;;;59.35;37.90;;;;;;;;;;6306863;22;20007;-75
2022/12/29 16:03:16;;;;;;;56.22;36.00;;;;;;;;;;6306620;22;20315;-75
2022/12/29 16:05:42;;;;;;;61.40;37.55;;;;;;;;;;6306809;22;20014;-74
2022/12/29 16:08:26;;;;;;;65.57;38.92;;;;;;;;;;6277860;22;20452;-74
2022/12/29 16:10:56;;;;;;;63.63;40.63;;;;;;;;;;6302968;22;19999;-73
2022/12/29 16:13:40;;;;;;;70.50;46.75;;;;;;;;;;6303347;22;20079;-74
2022/12/29 16:16:14;;;;;;;63.87;43.23;;;;;;;;;;6303269;22;20014;-74
2022/12/29 16:18:40;;;;;;;71.03;47.97;;;;;;;;;;6307100;22;19995;-73
2022/12/29 16:21:15;;;;;;;73.47;48.08;;;;;;;;;;6307370;22;20006;-73
2022/12/29 16:23:44;;;;;;;67.38;45.58;;;;;;;;;;6307181;22;19999;-73
2022/12/29 16:26:17;;;;;;;59.22;39.10;;;;;;;;;;6307216;22;20030;-73
2022/12/29 16:40:33;;;;;;;47.88;33.25;;;;;;;;;;6308171;22;20034;-73
2022/12/29 16:51:55;;;;;;;;;;;;;;;;;;6213991;23;20015;-73
2022/12/29 16:57:29;;;;;;;56.78;33.65;;;;;;;;;;6213296;23;20023;-73
2022/12/29 16:59:58;;;;;;;52.45;32.28;;;;;;;;;;6254578;22;20349;-73
2022/12/29 17:02:26;;;;;;;51.90;32.35;;;;;;;;;;6308183;22;20003;-73
2022/12/29 17:04:52;;;;;;;51.63;33.78;;;;;;;;;;6307524;22;20034;-73
2022/12/29 17:07:20;;;;;;;53.63;34.67;;;;;;;;;;6307749;22;20431;-73
2022/12/29 17:09:46;;;;;;;52.60;34.00;;;;;;;;;;6304529;22;20007;-73
2022/12/29 17:12:20;;;;;;;59.45;36.83;;;;;;;;;;6304837;22;20015;-73
2022/12/29 17:14:53;;;;;;;53.17;35.08;;;;;;;;;;6306159;22;20003;-73
2022/12/29 17:17:29;;;;;;;53.30;34.83;;;;;;;;;;6307638;22;20022;-73
2022/12/29 17:19:58;;;;;;;53.53;34.95;;;;;;;;;;6308538;22;20053;-73
2022/12/29 17:22:25;;;;;;;56.55;35.78;;;;;;;;;;6308877;22;20015;-73
2022/12/29 17:24:52;;;;;;;56.15;37.83;;;;;;;;;;6307799;22;20494;-73
2022/12/29 17:27:22;;;;;;;67.78;38.92;;;;;;;;;;6308381;22;20007;-73
2022/12/29 17:29:48;;;;;;;62.40;39.73;;;;;;;;;;6308186;22;20030;-73
2022/12/29 17:32:14;;;;;;;62.03;40.25;;;;;;;;;;6307765;22;20003;-71
2022/12/29 17:34:41;;;;;;;60.42;38.85;;;;;;;;;;6280859;22;20003;-71
2022/12/29 17:37:24;;;;;;;63.05;38.33;;;;;;;;;;6307985;22;20076;-73
2022/12/29 17:39:51;;;;;;;58.65;39.95;;;;;;;;;;6307997;22;20070;-73
2022/12/29 17:42:20;;;;;;;56.65;37.92;;;;;;;;;;6308023;22;19999;-73
2022/12/29 17:44:46;;;;;;;59.13;40.40;;;;;;;;;;6308143;22;20029;-73
2022/12/29 17:47:14;;;;;;;61.38;38.72;;;;;;;;;;6307861;22;20083;-73
2022/12/29 17:49:44;;;;;;;62.28;40.22;;;;;;;;;;6308253;22;20334;-73
2022/12/29 17:52:11;;;;;;;63.78;39.92;;;;;;;;;;6307860;22;20000;-73
2022/12/29 17:54:42;;;;;;;62.42;40.22;;;;;;;;;;6307646;22;20074;-73
2022/12/29 17:57:11;;;;;;;60.72;39.80;;;;;;;;;;6307680;22;20053;-73
2022/12/29 17:59:37;;;;;;;62.60;40.53;;;;;;;;;;6307975;22;20014;-73
2022/12/29 18:02:04;;;;;;;67.20;40.15;;;;;;;;;;6307653;22;20019;-73
2022/12/29 18:04:30;;;;;;;67.50;40.08;;;;;;;;;;6308372;22;20329;-73
2022/12/29 18:06:57;;;;;;;63.47;41.88;;;;;;;;;;6308186;22;19999;-73
2022/12/29 18:09:23;;;;;;;57.50;39.63;;;;;;;;;;6308096;22;20000;-73
2022/12/29 18:11:58;;;;;;;68.40;42.97;;;;;;;;;;6308776;22;20074;-73
2022/12/29 18:14:25;;;;;;;92.40;55.70;;;;;;;;;;6280961;22;20081;-73
2022/12/29 18:35:28;;;;;;;72.05;48.33;;;;;;;;;;6213293;23;20394;-72
2022/12/29 18:43:49;;;;;;;63.67;40.92;;;;;;;;;;6207936;23;20019;-73
2022/12/29 18:46:15;;;;;;;75.95;46.40;;;;;;;;;;6240252;22;20380;-73
2022/12/29 18:48:42;;;;;;;72.47;49.17;;;;;;;;;;6306923;22;20372;-73
2022/12/29 18:51:15;;;;;;;97.88;62.55;;;;;;;;;;6307712;22;19995;-72